createdAt,value
2022-11-26T00:01:43.019Z,6.50
2022-11-26T00:04:10.487Z,6.50
2022-11-26T00:06:40.551Z,6.50
2022-11-26T00:09:16.768Z,6.40
2022-11-26T00:11:44.079Z,6.50
2022-11-26T00:14:18.443Z,6.40
2022-11-26T00:16:46.883Z,6.50
2022-11-26T00:19:14.052Z,6.40
2022-11-26T00:21:43.406Z,6.40
2022-11-26T00:24:29.795Z,6.40
2022-11-26T00:26:59.088Z,6.40
2022-11-26T00:29:26.454Z,6.50
2022-11-26T00:31:53.568Z,6.50
2022-11-26T00:34:20.895Z,6.50
2022-11-26T00:36:48.594Z,6.50
2022-11-26T00:39:20.137Z,6.50
2022-11-26T00:41:51.126Z,6.50
2022-11-26T00:44:21.256Z,6.50
2022-11-26T00:46:49.103Z,6.50
2022-11-26T00:49:17.030Z,6.50
2022-11-26T00:51:45.107Z,6.50
2022-11-26T00:54:18.286Z,6.50
2022-11-26T00:56:48.131Z,6.50
2022-11-26T00:59:19.537Z,6.50
2022-11-26T01:01:46.969Z,6.50
2022-11-26T01:04:14.507Z,6.50
2022-11-26T01:06:46.064Z,6.50
2022-11-26T01:09:19.069Z,6.50
2022-11-26T01:11:53.468Z,6.40
2022-11-26T01:14:22.950Z,6.40
2022-11-26T01:16:51.453Z,6.40
2022-11-26T01:19:18.677Z,6.40
2022-11-26T01:21:45.997Z,6.40
2022-11-26T01:24:13.365Z,6.40
2022-11-26T01:26:42.932Z,6.40
2022-11-26T01:29:20.331Z,6.30
2022-11-26T01:31:48.188Z,6.30
2022-11-26T01:34:15.407Z,6.30
2022-11-26T01:36:42.708Z,6.30
2022-11-26T01:39:09.821Z,6.40
2022-11-26T01:41:43.518Z,6.40
2022-11-26T01:44:21.063Z,6.50
2022-11-26T01:46:49.690Z,6.50
2022-11-26T01:49:22.935Z,6.60
2022-11-26T01:52:23.070Z,6.60
2022-11-26T01:54:52.764Z,6.70
2022-11-26T01:57:27.984Z,6.80
2022-11-26T02:00:01.335Z,6.80
2022-11-26T02:02:29.937Z,6.90
2022-11-26T02:05:00.200Z,6.90
2022-11-26T02:07:27.379Z,7.00
2022-11-26T02:09:54.962Z,7.10
2022-11-26T02:12:22.522Z,7.10
2022-11-26T02:14:50.008Z,7.10
2022-11-26T02:17:20.213Z,7.20
2022-11-26T02:20:15.111Z,7.20
2022-11-26T02:23:13.282Z,7.20
2022-11-26T02:25:59.082Z,7.30
2022-11-26T02:29:08.586Z,7.30
2022-11-26T02:31:38.107Z,7.40
2022-11-26T02:34:21.054Z,7.30
2022-11-26T02:36:57.203Z,7.30
2022-11-26T02:39:28.354Z,7.40
2022-11-26T02:41:58.241Z,7.40
2022-11-26T02:44:38.439Z,7.40
2022-11-26T02:47:10.713Z,7.40
2022-11-26T02:49:42.017Z,7.40
2022-11-26T02:52:11.596Z,7.40
2022-11-26T02:54:41.421Z,7.40
2022-11-26T02:57:16.947Z,7.40
2022-11-26T02:59:44.847Z,7.40
2022-11-26T03:02:21.840Z,7.50
2022-11-26T03:04:53.185Z,7.50
2022-11-26T03:07:23.547Z,7.50
2022-11-26T03:09:58.986Z,7.50
2022-11-26T03:12:27.334Z,7.50
2022-11-26T03:14:54.894Z,7.40
2022-11-26T03:17:22.169Z,7.40
2022-11-26T03:19:49.430Z,7.40
2022-11-26T03:22:16.987Z,7.40
2022-11-26T03:24:44.085Z,7.40
2022-11-26T03:27:11.456Z,7.30
2022-11-26T03:29:38.795Z,7.30
2022-11-26T03:32:06.439Z,7.40
2022-11-26T03:34:33.617Z,7.40
2022-11-26T03:37:00.994Z,7.40
2022-11-26T03:39:28.333Z,7.40
2022-11-26T03:41:55.421Z,7.40
2022-11-26T03:44:22.786Z,7.30
2022-11-26T03:46:50.079Z,7.30
2022-11-26T03:49:17.366Z,7.30
2022-11-26T03:51:45.628Z,7.30
2022-11-26T03:54:12.803Z,7.30
2022-11-26T03:56:39.942Z,7.30
2022-11-26T03:59:07.746Z,7.30
2022-11-26T04:01:35.005Z,7.30
2022-11-26T04:04:02.332Z,7.30
2022-11-26T04:06:29.434Z,7.20
2022-11-26T04:08:56.770Z,7.20
2022-11-26T04:11:30.008Z,7.10
2022-11-26T04:13:57.150Z,7.10
2022-11-26T04:16:24.522Z,7.10
2022-11-26T04:18:51.742Z,7.10
2022-11-26T04:21:19.127Z,7.10
2022-11-26T04:23:46.351Z,7.10
2022-11-26T04:26:13.435Z,7.10
2022-11-26T04:28:40.715Z,7.10
2022-11-26T04:31:07.959Z,7.10
2022-11-26T04:33:35.166Z,7.10
2022-11-26T04:36:02.434Z,7.10
2022-11-26T04:38:29.925Z,7.20
2022-11-26T04:40:57.120Z,7.20
2022-11-26T04:43:24.224Z,7.20
2022-11-26T04:45:51.516Z,7.20
2022-11-26T04:48:18.823Z,7.20
2022-11-26T04:50:46.061Z,7.20
2022-11-26T04:53:13.181Z,7.10
2022-11-26T04:55:40.384Z,7.10
2022-11-26T04:58:07.789Z,7.20
2022-11-26T05:00:34.875Z,7.20
2022-11-26T05:03:02.031Z,7.20
2022-11-26T05:05:29.366Z,7.20
2022-11-26T05:07:56.981Z,7.20
2022-11-26T05:10:24.293Z,7.30
2022-11-26T05:12:51.472Z,7.40
2022-11-26T05:15:20.573Z,7.40
2022-11-26T05:17:47.612Z,7.40
2022-11-26T05:20:15.137Z,7.40
2022-11-26T05:22:42.793Z,7.40
2022-11-26T05:25:11.581Z,7.40
2022-11-26T05:27:38.888Z,7.50
2022-11-26T05:30:10.076Z,7.50
2022-11-26T05:32:37.373Z,7.50
2022-11-26T05:35:05.099Z,7.50
2022-11-26T05:37:32.749Z,7.50
2022-11-26T05:39:59.911Z,7.50
2022-11-26T05:42:27.097Z,7.50
2022-11-26T05:44:54.677Z,7.50
2022-11-26T05:47:22.202Z,7.50
2022-11-26T05:49:49.339Z,7.50
2022-11-26T05:52:16.672Z,7.50
2022-11-26T05:54:43.766Z,7.50
2022-11-26T05:57:11.585Z,7.40
2022-11-26T05:59:38.661Z,7.50
2022-11-26T06:02:05.931Z,7.40
2022-11-26T06:04:33.220Z,7.50
2022-11-26T06:07:00.457Z,7.50
2022-11-26T06:09:27.731Z,7.40
2022-11-26T06:11:55.089Z,7.40
2022-11-26T06:14:22.234Z,7.50
2022-11-26T06:16:49.444Z,7.40
2022-11-26T06:19:16.631Z,7.50
2022-11-26T06:21:43.821Z,7.50
2022-11-26T06:24:12.379Z,7.50
2022-11-26T06:26:39.758Z,7.50
2022-11-26T06:29:07.323Z,7.50
2022-11-26T06:31:34.571Z,7.50
2022-11-26T06:34:04.440Z,7.60
2022-11-26T06:36:31.876Z,7.60
2022-11-26T06:38:58.951Z,7.60
2022-11-26T06:41:26.757Z,7.70
2022-11-26T06:43:53.822Z,7.70
2022-11-26T06:46:22.260Z,7.70
2022-11-26T06:48:49.436Z,7.80
2022-11-26T06:51:19.662Z,7.80
2022-11-26T06:53:48.217Z,7.80
2022-11-26T06:56:19.057Z,7.90
2022-11-26T06:58:47.881Z,7.90
2022-11-26T07:01:18.138Z,7.90
2022-11-26T07:03:45.714Z,8.00
2022-11-26T07:06:28.238Z,7.90
2022-11-26T07:08:58.264Z,8.00
2022-11-26T07:11:26.582Z,8.00
2022-11-26T07:13:56.989Z,8.00
2022-11-26T07:16:24.795Z,8.00
2022-11-26T07:19:02.195Z,8.00
2022-11-26T07:21:30.751Z,8.10
2022-11-26T07:23:59.079Z,8.10
2022-11-26T07:26:26.282Z,8.10
2022-11-26T07:28:53.957Z,8.10
2022-11-26T07:31:23.452Z,8.20
2022-11-26T07:33:52.377Z,8.20
2022-11-26T07:36:30.078Z,8.30
2022-11-26T07:38:58.919Z,8.30
2022-11-26T07:41:30.645Z,8.30
2022-11-26T07:43:57.828Z,8.40
2022-11-26T07:46:30.892Z,8.40
2022-11-26T07:48:58.385Z,8.40
2022-11-26T07:51:31.359Z,8.40
2022-11-26T07:54:03.805Z,8.40
2022-11-26T07:56:32.314Z,8.40
2022-11-26T07:59:03.253Z,8.50
2022-11-26T08:01:30.853Z,8.50
2022-11-26T08:04:00.159Z,8.50
2022-11-26T08:06:30.442Z,8.60
2022-11-26T08:09:02.512Z,8.70
2022-11-26T08:11:32.530Z,8.70
2022-11-26T08:14:07.211Z,8.80
2022-11-26T08:16:34.767Z,8.80
2022-11-26T08:19:06.026Z,8.70
2022-11-26T08:21:33.739Z,8.80
2022-11-26T08:24:00.984Z,8.70
2022-11-26T08:26:35.021Z,8.80
2022-11-26T08:29:06.150Z,8.80
2022-11-26T08:31:35.107Z,8.80
2022-11-26T08:34:03.868Z,8.80
2022-11-26T08:36:31.741Z,8.80
2022-11-26T08:39:00.195Z,8.90
2022-11-26T08:41:27.992Z,8.90
2022-11-26T08:44:10.903Z,9.00
2022-11-26T08:46:40.505Z,9.10
2022-11-26T08:49:11.094Z,9.20
2022-11-26T08:51:38.556Z,9.10
2022-11-26T08:54:05.957Z,9.10
2022-11-26T08:56:34.510Z,9.10
2022-11-26T08:59:02.908Z,9.10
2022-11-26T09:01:34.403Z,9.20
2022-11-26T09:04:03.768Z,9.20
2022-11-26T09:06:33.203Z,9.30
2022-11-26T09:09:13.802Z,9.40
2022-11-26T09:11:57.443Z,9.50
2022-11-26T09:14:29.588Z,9.50
2022-11-26T09:17:09.038Z,9.60
2022-11-26T09:19:38.360Z,9.80
2022-11-26T09:22:05.865Z,10.00
2022-11-26T09:24:33.003Z,10.10
2022-11-26T09:27:05.938Z,10.20
2022-11-26T09:29:34.977Z,10.20
2022-11-26T09:32:23.118Z,10.40
2022-11-26T09:34:49.611Z,10.60
2022-11-26T09:37:18.832Z,10.80
2022-11-26T09:39:46.267Z,10.90
2022-11-26T09:42:38.195Z,11.30
2022-11-26T09:45:35.805Z,11.40
2022-11-26T09:48:04.249Z,11.30
2022-11-26T09:50:36.764Z,11.20
2022-11-26T09:53:21.411Z,11.20
2022-11-26T09:55:51.961Z,11.20
2022-11-26T09:58:28.297Z,11.10
2022-11-26T10:00:58.313Z,11.10
2022-11-26T10:03:32.382Z,11.10
2022-11-26T10:06:07.501Z,11.10
2022-11-26T10:08:46.683Z,11.00
2022-11-26T10:11:59.044Z,11.10
2022-11-26T10:14:41.748Z,11.10
2022-11-26T10:17:45.934Z,11.30
2022-11-26T10:20:41.497Z,11.50
2022-11-26T10:23:11.671Z,11.60
2022-11-26T10:25:51.024Z,11.60
2022-11-26T10:28:43.405Z,11.50
2022-11-26T10:31:32.771Z,11.50
2022-11-26T10:34:08.724Z,11.60
2022-11-26T10:36:40.181Z,11.60
2022-11-26T10:39:12.528Z,11.70
2022-11-26T10:41:39.900Z,11.70
2022-11-26T10:44:30.759Z,11.80
2022-11-26T10:46:59.089Z,11.90
2022-11-26T10:49:28.652Z,11.90
2022-11-26T10:52:03.425Z,11.80
2022-11-26T10:54:36.241Z,11.80
2022-11-26T10:57:19.022Z,11.90
2022-11-26T10:59:51.821Z,12.10
2022-11-26T11:02:21.964Z,12.30
2022-11-26T11:04:54.794Z,12.50
2022-11-26T11:07:41.770Z,12.70
2022-11-26T11:10:08.881Z,12.70
2022-11-26T11:12:41.315Z,12.70
2022-11-26T11:15:28.034Z,12.60
2022-11-26T11:17:59.279Z,12.70
2022-11-26T11:20:32.350Z,12.80
2022-11-26T11:23:06.899Z,12.80
2022-11-26T11:25:46.650Z,12.80
2022-11-26T11:28:22.257Z,12.70
2022-11-26T11:31:00.498Z,12.60
2022-11-26T11:33:29.700Z,12.50
2022-11-26T11:36:13.277Z,12.40
2022-11-26T11:39:13.048Z,12.40
2022-11-26T11:41:47.297Z,12.50
2022-11-26T11:44:25.260Z,12.50
2022-11-26T11:47:46.687Z,12.40
2022-11-26T11:50:16.959Z,12.50
2022-11-26T11:53:20.387Z,12.60
2022-11-26T11:56:26.372Z,12.70
2022-11-26T11:59:12.235Z,12.80
2022-11-26T12:02:16.653Z,12.90
2022-11-26T12:05:05.442Z,12.80
2022-11-26T12:07:42.218Z,12.70
2022-11-26T12:10:35.707Z,12.50
2022-11-26T12:13:07.550Z,12.20
2022-11-26T12:16:05.985Z,12.00
2022-11-26T12:18:42.209Z,11.90
2022-11-26T12:21:28.634Z,11.80
2022-11-26T12:24:04.425Z,11.90
2022-11-26T12:26:36.976Z,11.90
2022-11-26T12:29:17.860Z,11.80
2022-11-26T12:32:00.667Z,11.80
2022-11-26T12:34:37.797Z,11.80
2022-11-26T12:37:23.225Z,11.70
2022-11-26T12:39:53.848Z,11.70
2022-11-26T12:42:47.423Z,11.70
2022-11-26T12:45:31.503Z,11.70
2022-11-26T12:48:04.255Z,11.60
2022-11-26T12:50:46.549Z,11.50
2022-11-26T12:53:16.776Z,11.50
2022-11-26T12:55:56.607Z,11.50
2022-11-26T12:58:29.234Z,11.50
2022-11-26T13:00:57.046Z,11.60
2022-11-26T13:03:32.298Z,11.70
2022-11-26T13:06:18.104Z,11.80
2022-11-26T13:08:54.605Z,12.00
2022-11-26T13:11:37.266Z,12.20
2022-11-26T13:14:20.425Z,12.20
2022-11-26T13:16:56.680Z,12.20
2022-11-26T13:19:29.840Z,12.30
2022-11-26T13:22:34.622Z,12.30
2022-11-26T13:25:23.712Z,12.30
2022-11-26T13:28:19.462Z,12.20
2022-11-26T13:31:14.490Z,12.10
2022-11-26T13:34:14.676Z,12.00
2022-11-26T13:36:55.521Z,12.00
2022-11-26T13:39:52.087Z,12.10
2022-11-26T13:42:37.138Z,12.10
2022-11-26T13:45:04.243Z,12.10
2022-11-26T13:47:42.310Z,12.20
2022-11-26T13:50:31.569Z,12.10
2022-11-26T13:53:12.323Z,12.10
2022-11-26T13:56:00.156Z,12.00
2022-11-26T13:58:34.581Z,11.90
2022-11-26T14:01:26.579Z,11.90
2022-11-26T14:03:54.341Z,11.90
2022-11-26T14:06:22.480Z,11.80
2022-11-26T14:08:52.293Z,11.80
2022-11-26T14:11:41.143Z,11.70
2022-11-26T14:14:26.738Z,11.70
2022-11-26T14:17:15.188Z,11.60
2022-11-26T14:19:42.545Z,11.60
2022-11-26T14:22:10.163Z,11.50
2022-11-26T14:24:49.599Z,11.50
2022-11-26T14:27:20.044Z,11.50
2022-11-26T14:29:54.334Z,11.40
2022-11-26T14:32:26.951Z,11.40
2022-11-26T14:34:58.270Z,11.30
2022-11-26T14:37:31.160Z,11.30
2022-11-26T14:40:05.265Z,11.30
2022-11-26T14:42:32.627Z,11.30
2022-11-26T14:45:02.415Z,11.20
2022-11-26T14:47:31.097Z,11.30
2022-11-26T14:50:02.445Z,11.20
2022-11-26T14:52:34.551Z,11.30
2022-11-26T14:55:05.917Z,11.20
2022-11-26T14:57:41.205Z,11.20
2022-11-26T15:00:22.797Z,11.20
2022-11-26T15:02:50.501Z,11.20
2022-11-26T15:05:33.197Z,11.10
2022-11-26T15:08:15.886Z,11.10
2022-11-26T15:11:01.535Z,11.10
2022-11-26T15:13:43.878Z,11.10
2022-11-26T15:16:35.242Z,11.00
2022-11-26T15:19:04.162Z,10.90
2022-11-26T15:21:32.192Z,10.70
2022-11-26T15:24:02.478Z,10.60
2022-11-26T15:26:33.752Z,10.50
2022-11-26T15:29:02.329Z,10.40
2022-11-26T15:31:40.836Z,10.30
2022-11-26T15:34:15.663Z,10.30
2022-11-26T15:36:43.054Z,10.30
2022-11-26T15:39:31.753Z,10.20
2022-11-26T15:42:06.169Z,10.10
2022-11-26T15:44:41.952Z,10.10
2022-11-26T15:47:17.435Z,10.00
2022-11-26T15:49:49.765Z,10.00
2022-11-26T15:52:23.694Z,9.90
2022-11-26T15:55:16.566Z,9.90
2022-11-26T15:57:44.394Z,9.90
2022-11-26T16:00:51.635Z,9.80
2022-11-26T16:03:45.483Z,9.80
2022-11-26T16:06:39.385Z,9.80
2022-11-26T16:09:28.084Z,9.80
2022-11-26T16:12:00.628Z,9.80
2022-11-26T16:14:40.170Z,9.70
2022-11-26T16:17:16.329Z,9.70
2022-11-26T16:20:21.581Z,9.60
2022-11-26T16:22:54.543Z,9.60
2022-11-26T16:25:30.352Z,9.50
2022-11-26T16:28:14.854Z,9.50
2022-11-26T16:30:44.236Z,9.40
2022-11-26T16:33:11.547Z,9.30
2022-11-26T16:35:47.594Z,9.30
2022-11-26T16:38:23.121Z,9.20
2022-11-26T16:40:50.993Z,9.20
2022-11-26T16:43:18.826Z,9.20
2022-11-26T16:45:48.063Z,9.20
2022-11-26T16:48:25.881Z,9.20
2022-11-26T16:50:56.901Z,9.20
2022-11-26T16:53:24.247Z,9.10
2022-11-26T16:55:53.551Z,9.10
2022-11-26T16:58:32.468Z,9.00
2022-11-26T17:01:00.128Z,9.00
2022-11-26T17:03:32.723Z,8.90
2022-11-26T17:06:11.624Z,8.90
2022-11-26T17:08:39.484Z,8.80
2022-11-26T17:11:06.739Z,8.80
2022-11-26T17:13:33.906Z,8.70
2022-11-26T17:16:02.313Z,8.70
2022-11-26T17:18:29.420Z,8.60
2022-11-26T17:20:56.759Z,8.60
2022-11-26T17:23:23.936Z,8.60
2022-11-26T17:25:54.175Z,8.60
2022-11-26T17:28:23.387Z,8.50
2022-11-26T17:30:51.451Z,8.50
2022-11-26T17:33:19.416Z,8.40
2022-11-26T17:35:47.209Z,8.40
2022-11-26T17:38:20.197Z,8.40
2022-11-26T17:40:48.538Z,8.30
2022-11-26T17:43:15.696Z,8.20
2022-11-26T17:45:43.262Z,8.20
2022-11-26T17:48:13.483Z,8.20
2022-11-26T17:50:41.690Z,8.10
2022-11-26T17:53:08.855Z,8.10
2022-11-26T17:55:36.270Z,8.10
2022-11-26T17:58:03.549Z,8.10
2022-11-26T18:00:30.748Z,8.10
2022-11-26T18:02:58.636Z,8.00
2022-11-26T18:05:25.926Z,8.00
2022-11-26T18:07:53.240Z,8.00
2022-11-26T18:10:22.299Z,7.90
2022-11-26T18:12:52.187Z,7.90
2022-11-26T18:15:23.230Z,7.90
2022-11-26T18:17:53.342Z,7.90
2022-11-26T18:20:27.123Z,7.90
2022-11-26T18:22:57.365Z,7.90
2022-11-26T18:25:24.781Z,7.90
2022-11-26T18:27:52.233Z,7.80
2022-11-26T18:30:23.145Z,7.80
2022-11-26T18:32:50.636Z,7.80
2022-11-26T18:35:18.032Z,7.80
2022-11-26T18:37:45.480Z,7.80
2022-11-26T18:40:15.398Z,7.80
2022-11-26T18:42:43.228Z,7.80
2022-11-26T18:45:12.208Z,7.70
2022-11-26T18:47:40.211Z,7.70
2022-11-26T18:50:08.086Z,7.70
2022-11-26T18:52:35.432Z,7.70
2022-11-26T18:55:08.210Z,7.70
2022-11-26T18:57:36.073Z,7.70
2022-11-26T19:00:06.105Z,7.60
2022-11-26T19:02:36.618Z,7.70
2022-11-26T19:05:05.104Z,7.60
2022-11-26T19:07:33.320Z,7.60
2022-11-26T19:10:00.628Z,7.60
2022-11-26T19:12:27.746Z,7.50
2022-11-26T19:14:55.031Z,7.50
2022-11-26T19:17:22.477Z,7.50
2022-11-26T19:19:49.652Z,7.50
2022-11-26T19:22:16.819Z,7.40
2022-11-26T19:24:44.144Z,7.40
2022-11-26T19:27:13.289Z,7.40
2022-11-26T19:29:40.827Z,7.30
2022-11-26T19:32:09.180Z,7.40
2022-11-26T19:34:36.950Z,7.30
2022-11-26T19:37:04.600Z,7.30
2022-11-26T19:39:31.971Z,7.30
2022-11-26T19:42:00.030Z,7.30
2022-11-26T19:44:27.179Z,7.20
2022-11-26T19:46:54.380Z,7.20
2022-11-26T19:49:21.526Z,7.20
2022-11-26T19:51:48.682Z,7.10
2022-11-26T19:54:16.441Z,7.10
2022-11-26T19:56:46.361Z,7.10
2022-11-26T19:59:14.372Z,7.10
2022-11-26T20:01:42.161Z,7.10
2022-11-26T20:04:13.156Z,7.10
2022-11-26T20:06:40.297Z,7.10
2022-11-26T20:09:09.186Z,7.10
2022-11-26T20:11:38.652Z,7.10
2022-11-26T20:14:10.870Z,7.10
2022-11-26T20:16:40.486Z,7.10
2022-11-26T20:19:08.181Z,7.10
2022-11-26T20:21:36.454Z,7.10
2022-11-26T20:24:07.723Z,7.10
2022-11-26T20:26:37.570Z,7.20
2022-11-26T20:29:09.882Z,7.20
2022-11-26T20:31:45.334Z,7.20
2022-11-26T20:34:16.937Z,7.30
2022-11-26T20:36:44.749Z,7.20
2022-11-26T20:39:17.514Z,7.30
2022-11-26T20:41:46.002Z,7.30
2022-11-26T20:44:13.860Z,7.30
2022-11-26T20:46:41.235Z,7.20
2022-11-26T20:49:10.939Z,7.30
2022-11-26T20:51:38.395Z,7.20
2022-11-26T20:54:07.057Z,7.20
2022-11-26T20:56:34.345Z,7.20
2022-11-26T20:59:01.712Z,7.20
2022-11-26T21:01:30.236Z,7.20
2022-11-26T21:03:58.812Z,7.20
2022-11-26T21:06:31.603Z,7.10
2022-11-26T21:09:04.326Z,7.10
2022-11-26T21:11:31.651Z,7.10
2022-11-26T21:14:00.113Z,7.20
2022-11-26T21:16:28.609Z,7.20
2022-11-26T21:18:56.879Z,7.10
2022-11-26T21:21:25.256Z,7.10
2022-11-26T21:23:52.769Z,7.10
2022-11-26T21:26:24.866Z,7.10
2022-11-26T21:28:57.235Z,7.10
2022-11-26T21:31:25.273Z,7.10
2022-11-26T21:33:58.275Z,7.10
2022-11-26T21:36:26.754Z,7.00
2022-11-26T21:38:54.209Z,7.00
2022-11-26T21:41:22.911Z,7.00
2022-11-26T21:43:50.510Z,7.00
2022-11-26T21:46:20.588Z,6.90
2022-11-26T21:48:47.854Z,7.00
2022-11-26T21:51:17.390Z,6.90
2022-11-26T21:53:45.684Z,6.90
2022-11-26T21:56:24.503Z,6.90
2022-11-26T21:58:51.951Z,6.90
2022-11-26T22:01:22.161Z,6.90
2022-11-26T22:03:51.662Z,6.90
2022-11-26T22:06:20.355Z,6.90
2022-11-26T22:08:48.361Z,6.90
2022-11-26T22:11:17.993Z,6.80
2022-11-26T22:13:45.210Z,6.80
2022-11-26T22:16:14.741Z,6.80
2022-11-26T22:18:43.495Z,6.80
2022-11-26T22:21:16.362Z,6.80
2022-11-26T22:23:43.502Z,6.80
2022-11-26T22:26:10.786Z,6.70
2022-11-26T22:28:38.801Z,6.70
2022-11-26T22:31:14.929Z,6.70
2022-11-26T22:33:42.166Z,6.60
2022-11-26T22:36:09.667Z,6.60
2022-11-26T22:38:38.399Z,6.60
2022-11-26T22:41:07.890Z,6.50
2022-11-26T22:43:35.684Z,6.50
2022-11-26T22:46:05.107Z,6.50
2022-11-26T22:48:33.454Z,6.50
2022-11-26T22:51:01.114Z,6.50
2022-11-26T22:53:28.370Z,6.50
2022-11-26T22:55:57.293Z,6.50
2022-11-26T22:58:26.286Z,6.40
2022-11-26T23:00:59.239Z,6.40
2022-11-26T23:03:28.150Z,6.40
2022-11-26T23:05:55.894Z,6.30
2022-11-26T23:08:23.063Z,6.40
2022-11-26T23:10:50.346Z,6.40
2022-11-26T23:13:17.761Z,6.30
2022-11-26T23:15:46.776Z,6.30
2022-11-26T23:18:15.440Z,6.30
2022-11-26T23:20:43.249Z,6.30
2022-11-26T23:23:10.330Z,6.30
2022-11-26T23:25:39.010Z,6.30
2022-11-26T23:28:06.817Z,6.30
2022-11-26T23:30:35.204Z,6.30
2022-11-26T23:33:02.487Z,6.30
2022-11-26T23:35:29.826Z,6.20
2022-11-26T23:37:57.098Z,6.20
2022-11-26T23:40:24.451Z,6.20
2022-11-26T23:42:51.867Z,6.20
2022-11-26T23:45:19.266Z,6.10
2022-11-26T23:47:46.465Z,6.00
2022-11-26T23:50:14.639Z,6.00
2022-11-26T23:52:41.824Z,5.90
2022-11-26T23:55:10.155Z,5.90
2022-11-26T23:57:37.276Z,5.90
